sensor_id;sensor_type;location;lat;lon;timestamp;pressure;altitude;pressure_sealevel;temperature;humidity
60170;BME280;46042;49.444;6.862;2023-03-04T00:00:04;99388.38;;;-1.54;98.69
60170;BME280;46042;49.444;6.862;2023-03-04T00:02:30;99387.56;;;-1.53;97.97
60170;BME280;46042;49.444;6.862;2023-03-04T00:04:57;99391.00;;;-1.56;98.89
60170;BME280;46042;49.444;6.862;2023-03-04T00:07:24;99399.63;;;-1.57;99.96
60170;BME280;46042;49.444;6.862;2023-03-04T00:09:50;99399.63;;;-1.62;99.36
60170;BME280;46042;49.444;6.862;2023-03-04T00:12:17;99393.66;;;-1.70;100.00
60170;BME280;46042;49.444;6.862;2023-03-04T00:14:43;99391.91;;;-1.69;100.00
60170;BME280;46042;49.444;6.862;2023-03-04T00:17:10;99396.22;;;-1.70;99.82
60170;BME280;46042;49.444;6.862;2023-03-04T00:19:36;99389.34;;;-1.73;100.00
60170;BME280;46042;49.444;6.862;2023-03-04T00:22:03;99388.47;;;-1.73;100.00
60170;BME280;46042;49.444;6.862;2023-03-04T00:24:31;99389.34;;;-1.74;99.97
60170;BME280;46042;49.444;6.862;2023-03-04T00:26:57;99385.94;;;-1.78;98.64
60170;BME280;46042;49.444;6.862;2023-03-04T00:29:24;99391.09;;;-1.84;98.69
60170;BME280;46042;49.444;6.862;2023-03-04T00:31:51;99385.94;;;-1.82;100.00
60170;BME280;46042;49.444;6.862;2023-03-04T00:34:18;99385.97;;;-1.90;100.00
60170;BME280;46042;49.444;6.862;2023-03-04T00:36:45;99384.25;;;-1.91;100.00
60170;BME280;46042;49.444;6.862;2023-03-04T00:39:12;99391.13;;;-1.92;100.00
60170;BME280;46042;49.444;6.862;2023-03-04T00:41:39;99393.69;;;-1.92;100.00
60170;BME280;46042;49.444;6.862;2023-03-04T00:44:06;99386.00;;;-1.96;97.71
60170;BME280;46042;49.444;6.862;2023-03-04T00:46:33;99384.25;;;-1.99;98.51
60170;BME280;46042;49.444;6.862;2023-03-04T00:48:59;99382.56;;;-2.03;98.41
60170;BME280;46042;49.444;6.862;2023-03-04T00:51:26;99384.28;;;-2.07;98.81
60170;BME280;46042;49.444;6.862;2023-03-04T00:53:52;99381.69;;;-2.08;97.33
60170;BME280;46042;49.444;6.862;2023-03-04T00:56:19;99387.75;;;-2.11;99.23
60170;BME280;46042;49.444;6.862;2023-03-04T00:58:46;99382.56;;;-2.11;98.78
60170;BME280;46042;49.444;6.862;2023-03-04T01:01:12;99382.59;;;-2.16;98.15
60170;BME280;46042;49.444;6.862;2023-03-04T01:03:39;99380.00;;;-2.17;99.05
60170;BME280;46042;49.444;6.862;2023-03-04T01:06:07;99374.84;;;-2.23;100.00
60170;BME280;46042;49.444;6.862;2023-03-04T01:08:34;99389.47;;;-2.24;99.83
60170;BME280;46042;49.444;6.862;2023-03-04T01:11:00;99383.47;;;-2.29;98.95
60170;BME280;46042;49.444;6.862;2023-03-04T01:13:27;99380.88;;;-2.34;100.00
60170;BME280;46042;49.444;6.862;2023-03-04T01:15:53;99394.66;;;-2.36;100.00
60170;BME280;46042;49.444;6.862;2023-03-04T01:18:21;99386.06;;;-2.41;100.00
60170;BME280;46042;49.444;6.862;2023-03-04T01:20:47;99384.34;;;-2.49;100.00
60170;BME280;46042;49.444;6.862;2023-03-04T01:23:14;99373.16;;;-2.57;100.00
60170;BME280;46042;49.444;6.862;2023-03-04T01:25:41;99374.88;;;-2.59;100.00
60170;BME280;46042;49.444;6.862;2023-03-04T01:28:07;99378.31;;;-2.60;100.00
60170;BME280;46042;49.444;6.862;2023-03-04T01:30:34;99380.91;;;-2.57;100.00
60170;BME280;46042;49.444;6.862;2023-03-04T01:33:01;99370.59;;;-2.59;100.00
60170;BME280;46042;49.444;6.862;2023-03-04T01:35:27;99365.47;;;-2.65;100.00
60170;BME280;46042;49.444;6.862;2023-03-04T01:37:54;99357.72;;;-2.65;100.00
60170;BME280;46042;49.444;6.862;2023-03-04T01:40:21;99359.44;;;-2.64;100.00
60170;BME280;46042;49.444;6.862;2023-03-04T01:42:47;99355.97;;;-2.66;100.00
60170;BME280;46042;49.444;6.862;2023-03-04T01:45:17;99358.56;;;-2.63;100.00
60170;BME280;46042;49.444;6.862;2023-03-04T01:47:48;99356.84;;;-2.65;100.00
60170;BME280;46042;49.444;6.862;2023-03-04T01:50:29;99350.81;;;-2.66;100.00
60170;BME280;46042;49.444;6.862;2023-03-04T01:52:57;99352.56;;;-2.65;100.00
60170;BME280;46042;49.444;6.862;2023-03-04T01:55:23;99347.38;;;-2.71;100.00
60170;BME280;46042;49.444;6.862;2023-03-04T01:57:51;99345.66;;;-2.75;100.00
60170;BME280;46042;49.444;6.862;2023-03-04T02:02:51;99340.50;;;-2.84;100.00
60170;BME280;46042;49.444;6.862;2023-03-04T02:05:20;99337.06;;;-2.87;100.00
60170;BME280;46042;49.444;6.862;2023-03-04T02:07:48;99331.94;;;-2.88;100.00
60170;BME280;46042;49.444;6.862;2023-03-04T02:10:15;99326.78;;;-2.88;100.00
60170;BME280;46042;49.444;6.862;2023-03-04T02:12:43;99325.91;;;-2.86;100.00
60170;BME280;46042;49.444;6.862;2023-03-04T02:15:10;99324.19;;;-2.90;100.00
60170;BME280;46042;49.444;6.862;2023-03-04T02:17:37;99324.19;;;-2.90;100.00
60170;BME280;46042;49.444;6.862;2023-03-04T02:25:51;99322.47;;;-2.95;100.00
60170;BME280;46042;49.444;6.862;2023-03-04T02:28:20;99322.47;;;-2.95;100.00
60170;BME280;46042;49.444;6.862;2023-03-04T02:30:47;99313.88;;;-2.96;100.00
60170;BME280;46042;49.444;6.862;2023-03-04T02:33:16;99316.47;;;-3.01;100.00
60170;BME280;46042;49.444;6.862;2023-03-04T02:35:44;99320.72;;;-3.01;100.00
60170;BME280;46042;49.444;6.862;2023-03-04T02:38:12;99319.88;;;-3.03;100.00
60170;BME280;46042;49.444;6.862;2023-03-04T02:40:41;99318.19;;;-3.03;100.00
60170;BME280;46042;49.444;6.862;2023-03-04T02:43:10;99313.88;;;-3.07;100.00
60170;BME280;46042;49.444;6.862;2023-03-04T02:45:46;99313.88;;;-3.05;100.00
60170;BME280;46042;49.444;6.862;2023-03-04T02:48:16;99307.88;;;-3.13;100.00
60170;BME280;46042;49.444;6.862;2023-03-04T02:50:47;99307.00;;;-3.20;100.00
60170;BME280;46042;49.444;6.862;2023-03-04T02:53:14;99309.56;;;-3.17;100.00
60170;BME280;46042;49.444;6.862;2023-03-04T02:55:41;99307.88;;;-3.17;100.00
60170;BME280;46042;49.444;6.862;2023-03-04T02:58:09;99308.72;;;-3.16;100.00
60170;BME280;46042;49.444;6.862;2023-03-04T03:00:36;99311.28;;;-3.18;100.00
60170;BME280;46042;49.444;6.862;2023-03-04T03:03:04;99312.16;;;-3.17;100.00
60170;BME280;46042;49.444;6.862;2023-03-04T03:05:32;99313.88;;;-3.19;100.00
60170;BME280;46042;49.444;6.862;2023-03-04T03:08:00;99306.16;;;-3.22;100.00
60170;BME280;46042;49.444;6.862;2023-03-04T03:10:26;99317.31;;;-3.23;100.00
60170;BME280;46042;49.444;6.862;2023-03-04T03:12:53;99308.72;;;-3.27;100.00
60170;BME280;46042;49.444;6.862;2023-03-04T03:15:20;99308.69;;;-3.29;100.00
60170;BME280;46042;49.444;6.862;2023-03-04T03:17:47;99310.41;;;-3.31;100.00
60170;BME280;46042;49.444;6.862;2023-03-04T03:20:15;99309.53;;;-3.37;100.00
60170;BME280;46042;49.444;6.862;2023-03-04T03:22:42;99306.13;;;-3.41;100.00
60170;BME280;46042;49.444;6.862;2023-03-04T03:25:10;99309.53;;;-3.44;100.00
60170;BME280;46042;49.444;6.862;2023-03-04T03:27:37;99306.97;;;-3.47;100.00
60170;BME280;46042;49.444;6.862;2023-03-04T03:30:05;99312.09;;;-3.48;100.00
60170;BME280;46042;49.444;6.862;2023-03-04T03:32:32;99311.25;;;-3.49;100.00
60170;BME280;46042;49.444;6.862;2023-03-04T03:34:59;99304.41;;;-3.50;100.00
60170;BME280;46042;49.444;6.862;2023-03-04T03:37:26;99310.38;;;-3.54;100.00
60170;BME280;46042;49.444;6.862;2023-03-04T03:39:52;99308.66;;;-3.57;100.00
60170;BME280;46042;49.444;6.862;2023-03-04T03:42:19;99309.50;;;-3.62;100.00
60170;BME280;46042;49.444;6.862;2023-03-04T03:44:45;99310.34;;;-3.68;100.00
60170;BME280;46042;49.444;6.862;2023-03-04T03:47:12;99306.06;;;-3.72;100.00
60170;BME280;46042;49.444;6.862;2023-03-04T03:49:39;99309.47;;;-3.73;100.00
60170;BME280;46042;49.444;6.862;2023-03-04T03:52:05;99306.91;;;-3.76;100.00
60170;BME280;46042;49.444;6.862;2023-03-04T03:54:34;99308.59;;;-3.81;100.00
60170;BME280;46042;49.444;6.862;2023-03-04T03:57:00;99300.88;;;-3.78;100.00
60170;BME280;46042;49.444;6.862;2023-03-04T03:59:27;99305.16;;;-3.83;100.00
60170;BME280;46042;49.444;6.862;2023-03-04T04:01:54;99306.88;;;-3.81;100.00
60170;BME280;46042;49.444;6.862;2023-03-04T04:04:20;99313.75;;;-3.83;100.00
60170;BME280;46042;49.444;6.862;2023-03-04T04:06:47;99302.59;;;-3.85;100.00
60170;BME280;46042;49.444;6.862;2023-03-04T04:09:14;99307.72;;;-3.83;100.00
60170;BME280;46042;49.444;6.862;2023-03-04T04:11:40;99315.47;;;-3.85;100.00
60170;BME280;46042;49.444;6.862;2023-03-04T04:14:10;99312.88;;;-3.83;100.00
60170;BME280;46042;49.444;6.862;2023-03-04T04:16:37;99303.41;;;-3.86;100.00
60170;BME280;46042;49.444;6.862;2023-03-04T04:19:03;99307.72;;;-3.87;100.00
60170;BME280;46042;49.444;6.862;2023-03-04T04:21:30;99322.31;;;-3.89;100.00
60170;BME280;46042;49.444;6.862;2023-03-04T04:23:56;99316.28;;;-3.89;100.00
60170;BME280;46042;49.444;6.862;2023-03-04T04:26:23;99309.38;;;-3.95;100.00
60170;BME280;46042;49.444;6.862;2023-03-04T04:28:50;99311.97;;;-3.96;100.00
60170;BME280;46042;49.444;6.862;2023-03-04T04:31:16;99313.69;;;-3.97;100.00
60170;BME280;46042;49.444;6.862;2023-03-04T04:33:43;99316.25;;;-3.97;100.00
60170;BME280;46042;49.444;6.862;2023-03-04T04:36:12;99314.53;;;-3.98;100.00
60170;BME280;46042;49.444;6.862;2023-03-04T04:38:40;99314.53;;;-4.00;100.00
60170;BME280;46042;49.444;6.862;2023-03-04T04:41:17;99309.38;;;-3.98;100.00
60170;BME280;46042;49.444;6.862;2023-03-04T04:43:45;99318.81;;;-4.00;100.00
60170;BME280;46042;49.444;6.862;2023-03-04T04:46:12;99310.22;;;-4.04;100.00
60170;BME280;46042;49.444;6.862;2023-03-04T04:48:38;99315.34;;;-4.04;100.00
60170;BME280;46042;49.444;6.862;2023-03-04T04:51:05;99313.63;;;-4.05;100.00
60170;BME280;46042;49.444;6.862;2023-03-04T04:53:32;99320.47;;;-4.11;100.00
60170;BME280;46042;49.444;6.862;2023-03-04T04:55:58;99321.31;;;-4.12;100.00
60170;BME280;46042;49.444;6.862;2023-03-04T04:58:25;99319.63;;;-4.15;100.00
60170;BME280;46042;49.444;6.862;2023-03-04T05:00:55;99316.19;;;-4.17;100.00
60170;BME280;46042;49.444;6.862;2023-03-04T05:03:22;99320.44;;;-4.21;100.00
60170;BME280;46042;49.444;6.862;2023-03-04T05:05:49;99324.72;;;-4.23;100.00
60170;BME280;46042;49.444;6.862;2023-03-04T05:08:15;99325.56;;;-4.25;100.00
60170;BME280;46042;49.444;6.862;2023-03-04T05:10:42;99322.13;;;-4.28;100.00
60170;BME280;46042;49.444;6.862;2023-03-04T05:13:08;99330.66;;;-4.30;100.00
60170;BME280;46042;49.444;6.862;2023-03-04T05:15:36;99337.56;;;-4.28;100.00
60170;BME280;46042;49.444;6.862;2023-03-04T05:18:04;99340.13;;;-4.31;100.00
60170;BME280;46042;49.444;6.862;2023-03-04T05:20:31;99333.25;;;-4.29;100.00
60170;BME280;46042;49.444;6.862;2023-03-04T05:22:57;99342.69;;;-4.31;100.00
60170;BME280;46042;49.444;6.862;2023-03-04T05:25:24;99342.69;;;-4.34;100.00
60170;BME280;46042;49.444;6.862;2023-03-04T05:27:51;99343.47;;;-4.38;100.00
60170;BME280;46042;49.444;6.862;2023-03-04T05:30:17;99339.19;;;-4.39;100.00
60170;BME280;46042;49.444;6.862;2023-03-04T05:32:44;99339.19;;;-4.39;100.00
60170;BME280;46042;49.444;6.862;2023-03-04T05:35:11;99343.50;;;-4.39;100.00
60170;BME280;46042;49.444;6.862;2023-03-04T05:37:37;99336.63;;;-4.44;100.00
60170;BME280;46042;49.444;6.862;2023-03-04T05:40:04;99334.03;;;-4.45;100.00
60170;BME280;46042;49.444;6.862;2023-03-04T05:42:31;99334.00;;;-4.47;100.00
60170;BME280;46042;49.444;6.862;2023-03-04T05:44:58;99334.84;;;-4.48;100.00
60170;BME280;46042;49.444;6.862;2023-03-04T05:47:24;99334.00;;;-4.48;100.00
60170;BME280;46042;49.444;6.862;2023-03-04T05:49:51;99331.44;;;-4.48;100.00
60170;BME280;46042;49.444;6.862;2023-03-04T05:52:17;99334.84;;;-4.51;100.00
60170;BME280;46042;49.444;6.862;2023-03-04T05:54:44;99329.69;;;-4.51;100.00
60170;BME280;46042;49.444;6.862;2023-03-04T05:57:10;99338.25;;;-4.52;100.00
60170;BME280;46042;49.444;6.862;2023-03-04T05:59:37;99339.13;;;-4.53;100.00
60170;BME280;46042;49.444;6.862;2023-03-04T06:02:04;99337.38;;;-4.55;100.00
60170;BME280;46042;49.444;6.862;2023-03-04T06:04:30;99338.22;;;-4.57;100.00
60170;BME280;46042;49.444;6.862;2023-03-04T06:06:57;99350.22;;;-4.59;100.00
60170;BME280;46042;49.444;6.862;2023-03-04T06:09:24;99348.53;;;-4.58;100.00
60170;BME280;46042;49.444;6.862;2023-03-04T06:11:51;99344.22;;;-4.59;100.00
60170;BME280;46042;49.444;6.862;2023-03-04T06:14:17;99345.94;;;-4.60;100.00
60170;BME280;46042;49.444;6.862;2023-03-04T06:16:44;99351.91;;;-4.62;100.00
60170;BME280;46042;49.444;6.862;2023-03-04T06:19:11;99351.91;;;-4.62;100.00
60170;BME280;46042;49.444;6.862;2023-03-04T06:21:37;99355.38;;;-4.60;100.00
60170;BME280;46042;49.444;6.862;2023-03-04T06:24:04;99348.47;;;-4.63;100.00
60170;BME280;46042;49.444;6.862;2023-03-04T06:26:31;99353.66;;;-4.61;100.00
60170;BME280;46042;49.444;6.862;2023-03-04T06:28:57;99357.06;;;-4.61;100.00
60170;BME280;46042;49.444;6.862;2023-03-04T06:31:24;99362.22;;;-4.61;100.00
60170;BME280;46042;49.444;6.862;2023-03-04T06:33:51;99365.66;;;-4.60;100.00
60170;BME280;46042;49.444;6.862;2023-03-04T06:36:18;99363.06;;;-4.59;100.00
60170;BME280;46042;49.444;6.862;2023-03-04T06:38:44;99371.66;;;-4.58;100.00
60170;BME280;46042;49.444;6.862;2023-03-04T06:41:12;99368.22;;;-4.60;100.00
60170;BME280;46042;49.444;6.862;2023-03-04T06:43:38;99369.94;;;-4.58;100.00
60170;BME280;46042;49.444;6.862;2023-03-04T06:46:06;99376.78;;;-4.60;100.00
60170;BME280;46042;49.444;6.862;2023-03-04T06:48:33;99376.81;;;-4.55;100.00
60170;BME280;46042;49.444;6.862;2023-03-04T06:51:06;99381.16;;;-4.49;100.00
60170;BME280;46042;49.444;6.862;2023-03-04T06:53:32;99388.84;;;-4.48;100.00
60170;BME280;46042;49.444;6.862;2023-03-04T06:55:59;99381.19;;;-4.43;100.00
60170;BME280;46042;49.444;6.862;2023-03-04T06:58:26;99384.63;;;-4.41;100.00
60170;BME280;46042;49.444;6.862;2023-03-04T07:00:52;99395.81;;;-4.37;100.00
60170;BME280;46042;49.444;6.862;2023-03-04T07:03:19;99391.53;;;-4.32;100.00
60170;BME280;46042;49.444;6.862;2023-03-04T07:05:46;99403.56;;;-4.28;100.00
60170;BME280;46042;49.444;6.862;2023-03-04T07:08:13;99398.47;;;-4.23;100.00
60170;BME280;46042;49.444;6.862;2023-03-04T07:10:40;99395.91;;;-4.19;100.00
60170;BME280;46042;49.444;6.862;2023-03-04T07:13:07;99396.78;;;-4.17;100.00
60170;BME280;46042;49.444;6.862;2023-03-04T07:15:33;99398.53;;;-4.14;100.00
60170;BME280;46042;49.444;6.862;2023-03-04T07:18:01;99407.13;;;-4.12;100.00
60170;BME280;46042;49.444;6.862;2023-03-04T07:20:28;99409.72;;;-4.04;100.00
60170;BME280;46042;49.444;6.862;2023-03-04T07:22:57;99413.19;;;-3.96;100.00
60170;BME280;46042;49.444;6.862;2023-03-04T07:25:23;99411.53;;;-3.89;100.00
60170;BME280;46042;49.444;6.862;2023-03-04T07:27:50;99411.56;;;-3.81;100.00
60170;BME280;46042;49.444;6.862;2023-03-04T07:30:17;99425.31;;;-3.75;100.00
60170;BME280;46042;49.444;6.862;2023-03-04T07:32:43;99426.28;;;-3.54;100.00
60170;BME280;46042;49.444;6.862;2023-03-04T07:35:10;99428.09;;;-3.19;100.00
60170;BME280;46042;49.444;6.862;2023-03-04T07:37:37;99425.59;;;-2.97;100.00
60170;BME280;46042;49.444;6.862;2023-03-04T07:40:06;99424.75;;;-2.63;100.00
60170;BME280;46042;49.444;6.862;2023-03-04T07:42:36;99437.66;;;-2.29;100.00
60170;BME280;46042;49.444;6.862;2023-03-04T07:45:04;99430.78;;;-2.21;100.00
60170;BME280;46042;49.444;6.862;2023-03-04T07:47:30;99434.19;;;-2.12;100.00
60170;BME280;46042;49.444;6.862;2023-03-04T07:49:57;99424.69;;;-1.90;100.00
60170;BME280;46042;49.444;6.862;2023-03-04T07:52:24;99424.59;;;-1.61;100.00
60170;BME280;46042;49.444;6.862;2023-03-04T07:54:51;99431.47;;;-1.55;100.00
60170;BME280;46042;49.444;6.862;2023-03-04T07:57:17;99428.88;;;-1.57;100.00
60170;BME280;46042;49.444;6.862;2023-03-04T07:59:44;99431.44;;;-1.49;100.00
60170;BME280;46042;49.444;6.862;2023-03-04T08:02:10;99431.94;;;-0.80;100.00
60170;BME280;46042;49.444;6.862;2023-03-04T08:04:37;99430.47;;;-1.24;100.00
60170;BME280;46042;49.444;6.862;2023-03-04T08:07:04;99430.31;;;-0.98;100.00
60170;BME280;46042;49.444;6.862;2023-03-04T08:09:30;99427.72;;;-0.93;100.00
60170;BME280;46042;49.444;6.862;2023-03-04T08:11:57;99427.66;;;-0.81;100.00
60170;BME280;46042;49.444;6.862;2023-03-04T08:14:23;99421.53;;;-0.74;100.00
60170;BME280;46042;49.444;6.862;2023-03-04T08:16:50;99425.66;;;-0.45;100.00
60170;BME280;46042;49.444;6.862;2023-03-04T08:19:17;99422.94;;;-0.29;100.00
60170;BME280;46042;49.444;6.862;2023-03-04T08:21:43;99424.00;;;0.34;100.00
60170;BME280;46042;49.444;6.862;2023-03-04T08:24:10;99418.47;;;0.62;100.00
60170;BME280;46042;49.444;6.862;2023-03-04T08:26:43;99417.53;;;0.69;100.00
60170;BME280;46042;49.444;6.862;2023-03-04T08:29:18;99413.34;;;0.57;97.94
60170;BME280;46042;49.444;6.862;2023-03-04T08:31:47;99419.72;;;0.30;95.97
60170;BME280;46042;49.444;6.862;2023-03-04T08:34:14;99416.38;;;0.20;97.50
60170;BME280;46042;49.444;6.862;2023-03-04T08:36:41;99420.72;;;0.17;98.12
60170;BME280;46042;49.444;6.862;2023-03-04T08:39:11;99414.66;;;0.21;100.00
60170;BME280;46042;49.444;6.862;2023-03-04T08:41:38;99421.59;;;0.16;98.76
60170;BME280;46042;49.444;6.862;2023-03-04T08:44:05;99417.31;;;0.14;99.48
60170;BME280;46042;49.444;6.862;2023-03-04T08:46:33;99416.34;;;0.25;98.74
60170;BME280;46042;49.444;6.862;2023-03-04T08:49:00;99418.00;;;0.31;96.65
60170;BME280;46042;49.444;6.862;2023-03-04T08:51:26;99417.88;;;0.40;97.96
60170;BME280;46042;49.444;6.862;2023-03-04T08:53:54;99419.53;;;0.47;98.11
60170;BME280;46042;49.444;6.862;2023-03-04T08:56:21;99411.63;;;0.58;97.74
60170;BME280;46042;49.444;6.862;2023-03-04T08:58:47;99413.34;;;0.57;96.94
60170;BME280;46042;49.444;6.862;2023-03-04T09:01:14;99414.91;;;0.71;97.02
60170;BME280;46042;49.444;6.862;2023-03-04T09:03:41;99419.91;;;0.85;97.33
60170;BME280;46042;49.444;6.862;2023-03-04T09:06:08;99421.75;;;0.77;96.21
60170;BME280;46042;49.444;6.862;2023-03-04T09:08:36;99419.94;;;0.82;96.42
60170;BME280;46042;49.444;6.862;2023-03-04T09:11:02;99411.13;;;0.97;98.34
60170;BME280;46042;49.444;6.862;2023-03-04T09:13:30;99420.41;;;1.13;99.65
60170;BME280;46042;49.444;6.862;2023-03-04T09:15:57;99416.75;;;1.24;99.31
60170;BME280;46042;49.444;6.862;2023-03-04T09:18:24;99422.16;;;1.11;97.34
60170;BME280;46042;49.444;6.862;2023-03-04T09:20:52;99425.41;;;1.24;97.86
60170;BME280;46042;49.444;6.862;2023-03-04T09:23:18;99421.78;;;1.35;98.39
60170;BME280;46042;49.444;6.862;2023-03-04T09:25:46;99422.53;;;1.43;97.69
60170;BME280;46042;49.444;6.862;2023-03-04T09:28:15;99425.97;;;1.45;96.42
60170;BME280;46042;49.444;6.862;2023-03-04T09:30:42;99429.25;;;1.56;97.20
60170;BME280;46042;49.444;6.862;2023-03-04T09:33:10;99428.31;;;1.59;94.29
60170;BME280;46042;49.444;6.862;2023-03-04T09:35:37;99426.53;;;1.64;94.50
60170;BME280;46042;49.444;6.862;2023-03-04T09:38:03;99428.06;;;1.75;95.57
60170;BME280;46042;49.444;6.862;2023-03-04T09:40:43;99429.69;;;1.82;94.86
60170;BME280;46042;49.444;6.862;2023-03-04T09:43:45;99417.47;;;1.87;93.64
60170;BME280;46042;49.444;6.862;2023-03-04T09:46:11;99417.28;;;1.96;94.49
60170;BME280;46042;49.444;6.862;2023-03-04T09:48:44;99418.88;;;2.05;93.72
60170;BME280;46042;49.444;6.862;2023-03-04T09:56:35;99425.31;;;2.31;94.47
60170;BME280;46042;49.444;6.862;2023-03-04T10:01:41;99424.28;;;2.41;92.70
60170;BME280;46042;49.444;6.862;2023-03-04T10:07:02;99419.97;;;2.40;89.35
60170;BME280;46042;49.444;6.862;2023-03-04T10:09:52;99420.56;;;2.53;91.64
60170;BME280;46042;49.444;6.862;2023-03-04T10:12:23;99423.69;;;2.69;90.81
60170;BME280;46042;49.444;6.862;2023-03-04T10:15:02;99425.97;;;2.85;90.81
60170;BME280;46042;49.444;6.862;2023-03-04T10:17:36;99433.84;;;2.82;89.33
60170;BME280;46042;49.444;6.862;2023-03-04T10:20:24;99427.00;;;2.78;88.91
60170;BME280;46042;49.444;6.862;2023-03-04T10:22:59;99426.84;;;2.84;87.39
60170;BME280;46042;49.444;6.862;2023-03-04T10:25:31;99421.66;;;2.82;87.37
60170;BME280;46042;49.444;6.862;2023-03-04T10:27:58;99421.56;;;2.89;87.70
60170;BME280;46042;49.444;6.862;2023-03-04T10:33:29;99416.94;;;3.02;86.46
60170;BME280;46042;49.444;6.862;2023-03-04T10:38:32;99416.50;;;3.20;87.01
60170;BME280;46042;49.444;6.862;2023-03-04T10:41:00;99416.31;;;3.28;87.13
60170;BME280;46042;49.444;6.862;2023-03-04T10:43:28;99413.66;;;3.31;86.27
60170;BME280;46042;49.444;6.862;2023-03-04T10:45:58;99413.97;;;3.17;84.45
60170;BME280;46042;49.444;6.862;2023-03-04T10:48:29;99412.88;;;3.27;86.67
60170;BME280;46042;49.444;6.862;2023-03-04T10:51:26;99410.28;;;3.27;84.80
60170;BME280;46042;49.444;6.862;2023-03-04T10:54:06;99406.63;;;3.35;84.78
60170;BME280;46042;49.444;6.862;2023-03-04T10:56:42;99409.03;;;3.44;84.16
60170;BME280;46042;49.444;6.862;2023-03-04T11:01:53;99407.47;;;3.72;83.98
60170;BME280;46042;49.444;6.862;2023-03-04T11:04:23;99402.28;;;3.70;83.02
60170;BME280;46042;49.444;6.862;2023-03-04T11:06:53;99399.69;;;3.70;83.21
60170;BME280;46042;49.444;6.862;2023-03-04T11:09:23;99403.91;;;3.74;83.21
60170;BME280;46042;49.444;6.862;2023-03-04T11:11:52;99399.56;;;3.75;81.45
60170;BME280;46042;49.444;6.862;2023-03-04T11:14:24;99395.19;;;3.75;80.74
60170;BME280;46042;49.444;6.862;2023-03-04T11:16:59;99395.06;;;3.81;81.54
60170;BME280;46042;49.444;6.862;2023-03-04T11:19:30;99392.09;;;3.95;81.69
60170;BME280;46042;49.444;6.862;2023-03-04T11:22:02;99397.19;;;4.00;80.41
60170;BME280;46042;49.444;6.862;2023-03-04T11:24:30;99392.78;;;4.02;79.43
60170;BME280;46042;49.444;6.862;2023-03-04T11:29:44;99392.81;;;4.01;79.82
60170;BME280;46042;49.444;6.862;2023-03-04T11:32:26;99385.03;;;3.99;79.27
60170;BME280;46042;49.444;6.862;2023-03-04T11:40:33;99385.75;;;4.04;79.05
60170;BME280;46042;49.444;6.862;2023-03-04T11:43:08;99380.47;;;4.07;79.19
60170;BME280;46042;49.444;6.862;2023-03-04T11:46:15;99382.03;;;4.15;79.27
60170;BME280;46042;49.444;6.862;2023-03-04T11:49:20;99373.22;;;4.19;78.79
60170;BME280;46042;49.444;6.862;2023-03-04T12:22:46;99339.34;;;4.77;75.08
60170;BME280;46042;49.444;6.862;2023-03-04T12:26:06;99336.53;;;4.83;74.08
60170;BME280;46042;49.444;6.862;2023-03-04T12:28:44;99328.06;;;5.04;74.83
60170;BME280;46042;49.444;6.862;2023-03-04T12:42:29;99319.53;;;5.25;71.85
60170;BME280;46042;49.444;6.862;2023-03-04T12:48:08;99304.13;;;5.43;71.87
60170;BME280;46042;49.444;6.862;2023-03-04T12:55:56;99301.31;;;5.24;71.77
60170;BME280;46042;49.444;6.862;2023-03-04T12:58:28;99294.56;;;5.17;70.72
60170;BME280;46042;49.444;6.862;2023-03-04T13:06:42;99290.53;;;5.33;72.08
60170;BME280;46042;49.444;6.862;2023-03-04T13:09:25;99299.94;;;5.39;72.22
60170;BME280;46042;49.444;6.862;2023-03-04T13:12:04;99292.34;;;5.31;71.91
60170;BME280;46042;49.444;6.862;2023-03-04T13:14:31;99286.47;;;5.24;72.33
60170;BME280;46042;49.444;6.862;2023-03-04T13:19:48;99298.09;;;5.16;71.80
60170;BME280;46042;49.444;6.862;2023-03-04T13:24:56;99294.00;;;5.07;72.35
60170;BME280;46042;49.444;6.862;2023-03-04T13:27:48;99291.25;;;5.11;73.81
60170;BME280;46042;49.444;6.862;2023-03-04T13:44:01;99290.81;;;4.70;73.00
60170;BME280;46042;49.444;6.862;2023-03-04T13:46:39;99290.81;;;4.70;73.58
60170;BME280;46042;49.444;6.862;2023-03-04T13:49:16;99286.25;;;4.77;75.60
60170;BME280;46042;49.444;6.862;2023-03-04T13:51:45;99284.44;;;4.79;75.24
60170;BME280;46042;49.444;6.862;2023-03-04T13:59:20;99282.75;;;4.49;73.51
60170;BME280;46042;49.444;6.862;2023-03-04T14:01:53;99282.50;;;4.59;75.28
60170;BME280;46042;49.444;6.862;2023-03-04T14:04:37;99282.63;;;4.54;74.56
60170;BME280;46042;49.444;6.862;2023-03-04T14:12:27;99271.94;;;4.62;74.15
60170;BME280;46042;49.444;6.862;2023-03-04T14:14:57;99273.91;;;4.55;74.77
60170;BME280;46042;49.444;6.862;2023-03-04T14:17:28;99273.00;;;4.56;74.96
60170;BME280;46042;49.444;6.862;2023-03-04T14:19:56;99271.25;;;4.57;75.47
60170;BME280;46042;49.444;6.862;2023-03-04T14:22:30;99269.47;;;4.57;74.93
60170;BME280;46042;49.444;6.862;2023-03-04T14:25:18;99263.56;;;4.52;74.80
60170;BME280;46042;49.444;6.862;2023-03-04T14:27:46;99267.06;;;4.51;75.34
60170;BME280;46042;49.444;6.862;2023-03-04T14:30:23;99256.81;;;4.45;74.98
60170;BME280;46042;49.444;6.862;2023-03-04T14:33:12;99258.25;;;4.55;75.78
60170;BME280;46042;49.444;6.862;2023-03-04T14:35:45;99260.28;;;4.45;75.23
60170;BME280;46042;49.444;6.862;2023-03-04T14:38:31;99255.53;;;4.58;76.83
60170;BME280;46042;49.444;6.862;2023-03-04T14:41:04;99250.94;;;4.66;75.76
60170;BME280;46042;49.444;6.862;2023-03-04T14:43:45;99255.19;;;4.69;76.10
60170;BME280;46042;49.444;6.862;2023-03-04T14:46:16;99252.41;;;4.75;76.39
60170;BME280;46042;49.444;6.862;2023-03-04T14:48:49;99246.22;;;4.78;75.47
60170;BME280;46042;49.444;6.862;2023-03-04T14:53:56;99237.53;;;4.77;74.77
60170;BME280;46042;49.444;6.862;2023-03-04T14:56:33;99238.31;;;4.81;75.44
60170;BME280;46042;49.444;6.862;2023-03-04T14:59:00;99229.47;;;4.85;75.91
60170;BME280;46042;49.444;6.862;2023-03-04T15:01:33;99224.13;;;4.88;76.97
60170;BME280;46042;49.444;6.862;2023-03-04T15:04:06;99221.47;;;4.90;75.26
60170;BME280;46042;49.444;6.862;2023-03-04T15:06:36;99216.19;;;4.91;75.60
60170;BME280;46042;49.444;6.862;2023-03-04T15:09:07;99209.94;;;4.95;75.21
60170;BME280;46042;49.444;6.862;2023-03-04T15:11:51;99210.81;;;4.96;75.63